»·PEaware :: N800DW KEKO-KSLC

N800DW :: KEKO-KSLC

FLIGHT INFORMATION

Flight Status: Arrived
Operator: Privately registered:
United States
More flights under this callsign
Pilot: Scott L. (17677)
Aircraft: Unknown
(EPIC)
More flights by this aircraft type
Origin: KEKO Elko Regl
United States
Destination: KSLC Salt Lake City Intl
United States
More flights between these airports :: More routes between these airports
Route: +BQU V32 BVL BVL2
File this flight plan on PilotEdge
Remarks:
Altitude:
(Current/Filed)
21,000ft
Speed:
(Current/Filed)
280kts
Departed: 18-Apr-18 05:29 PM
Arrived: 18-Apr-18 06:10 PM
Distance/Time
Traveled:
286nm/0:41
Distance/Time
To Go:
Arrived

Flight Plot

Page will automatically refresh every two minutes.

Flight plan parsing failed; only flown route is shown


Map Options




Map Legend


Flown Route
Filed Route
Departure Airport
Arrival Airport
Navaid (VOR, NDB)
Fix

Horizontal Profiles

Position Reports

Time Latitude Longitude Heading Altitude Ground
Speed
18-Apr-18 17:21 40.827987 -115.781976 44 5079ft 0kts
18-Apr-18 17:22 40.827987 -115.781976 44 5079ft 0kts
18-Apr-18 17:23 40.827987 -115.781976 44 5079ft 0kts
18-Apr-18 17:24 40.827992 -115.781970 44 5079ft 1kts
18-Apr-18 17:25 40.827033 -115.780879 151 5077ft 0kts
18-Apr-18 17:26 40.827033 -115.780879 151 5077ft 0kts
18-Apr-18 17:27 40.827024 -115.780873 151 5077ft 1kts
18-Apr-18 17:28 40.821381 -115.798533 246 5182ft 159kts
18-Apr-18 17:29 40.780510 -115.790883 142 7965ft 203kts
18-Apr-18 17:30 40.761053 -115.723112 97 11257ft 224kts
18-Apr-18 17:31 40.759068 -115.639558 96 14175ft 236kts
18-Apr-18 17:32 40.757960 -115.551286 97 16612ft 248kts
18-Apr-18 17:33 40.756942 -115.458584 97 18601ft 258kts
18-Apr-18 17:34 40.755855 -115.362503 98 20233ft 267kts
18-Apr-18 17:35 40.754580 -115.261040 98 21005ft 297kts
18-Apr-18 17:36 40.753277 -115.151200 99 22400ft 276kts
18-Apr-18 17:37 40.751780 -115.047963 99 23488ft 284kts
18-Apr-18 17:38 40.750231 -114.943294 99 24494ft 290kts
18-Apr-18 17:39 40.748522 -114.834855 98 25038ft 306kts
18-Apr-18 17:40 40.746710 -114.725619 98 25071ft 323kts
18-Apr-18 17:41 40.744613 -114.605722 98 25077ft 331kts
18-Apr-18 17:42 40.742353 -114.483988 98 25077ft 334kts
18-Apr-18 17:43 40.739942 -114.361430 98 25078ft 335kts
18-Apr-18 17:44 40.737604 -114.248236 98 25074ft 335kts
18-Apr-18 17:45 40.734938 -114.125531 98 25074ft 335kts
18-Apr-18 17:46 40.732143 -114.002898 98 25076ft 335kts
18-Apr-18 17:47 40.729064 -113.875814 97 23849ft 362kts
18-Apr-18 17:48 40.726264 -113.741010 95 22377ft 373kts
18-Apr-18 17:49 40.726026 -113.604366 94 20901ft 373kts
18-Apr-18 17:50 40.725762 -113.468455 94 19524ft 369kts
18-Apr-18 17:51 40.725351 -113.336533 94 18129ft 355kts
18-Apr-18 17:52 40.724808 -113.207493 94 16648ft 349kts
18-Apr-18 17:53 40.724182 -113.082911 94 16085ft 326kts
18-Apr-18 17:54 40.723451 -112.966642 94 16137ft 315kts
18-Apr-18 17:55 40.722593 -112.851258 94 16138ft 314kts
18-Apr-18 17:56 40.721637 -112.736499 94 16138ft 313kts
18-Apr-18 17:57 40.720474 -112.616417 93 14736ft 345kts
18-Apr-18 17:58 40.737624 -112.495190 65 13887ft 344kts
18-Apr-18 17:59 40.783559 -112.385128 61 12967ft 335kts
18-Apr-18 18:00 40.827555 -112.284135 62 10770ft 306kts
18-Apr-18 18:01 40.868539 -112.190234 61 8572ft 288kts
18-Apr-18 18:02 40.904911 -112.106816 61 7875ft 239kts
18-Apr-18 18:03 40.937446 -112.031938 61 7067ft 212kts
18-Apr-18 18:04 40.933188 -111.975901 160 7054ft 146kts
18-Apr-18 18:05 40.895746 -111.966799 180 6142ft 140kts
18-Apr-18 18:06 40.855630 -111.965571 177 5361ft 132kts
18-Apr-18 18:07 40.822921 -111.962911 170 4738ft 111kts
18-Apr-18 18:08 40.792389 -111.962069 181 4205ft 101kts
18-Apr-18 18:09 40.785890 -111.960394 127 4200ft 5kts
18-Apr-18 18:10 40.782733 -111.959879 152 4200ft 15kts
18-Apr-18 18:11 40.782485 -111.958675 348 4200ft 0kts
18-Apr-18 18:12 40.782485 -111.958675 348 4200ft 0kts
18-Apr-18 18:13 36.082659 -115.170024 89 2115ft 0kts
18-Apr-18 18:14 36.082659 -115.170024 89 2115ft 0kts
18-Apr-18 18:15 36.082659 -115.170024 89 2115ft 0kts

Navigation Log

Ident Type
Flight plan parsing failed, navigation log unavailable